sensor_id;sensor_type;location;lat;lon;timestamp;P1;durP1;ratioP1;P2;durP2;ratioP2
51124;SDS011;37163;55.556;39.108;2022-11-20T00:01:11;9.95;;;6.53;;
51124;SDS011;37163;55.556;39.108;2022-11-20T00:03:39;11.23;;;6.47;;
51124;SDS011;37163;55.556;39.108;2022-11-20T00:06:07;9.15;;;6.38;;
51124;SDS011;37163;55.556;39.108;2022-11-20T00:08:35;10.45;;;5.65;;
51124;SDS011;37163;55.556;39.108;2022-11-20T00:11:14;8.88;;;5.43;;
51124;SDS011;37163;55.556;39.108;2022-11-20T00:13:42;9.85;;;5.53;;
51124;SDS011;37163;55.556;39.108;2022-11-20T00:16:10;8.60;;;5.85;;
51124;SDS011;37163;55.556;39.108;2022-11-20T00:18:39;10.13;;;5.63;;
51124;SDS011;37163;55.556;39.108;2022-11-20T00:21:06;10.95;;;6.07;;
51124;SDS011;37163;55.556;39.108;2022-11-20T00:23:34;12.05;;;5.43;;
51124;SDS011;37163;55.556;39.108;2022-11-20T00:26:01;9.70;;;6.43;;
51124;SDS011;37163;55.556;39.108;2022-11-20T00:28:31;8.02;;;5.38;;
51124;SDS011;37163;55.556;39.108;2022-11-20T00:31:08;7.47;;;5.15;;
51124;SDS011;37163;55.556;39.108;2022-11-20T00:33:36;8.40;;;4.95;;
51124;SDS011;37163;55.556;39.108;2022-11-20T00:36:03;8.73;;;5.70;;
51124;SDS011;37163;55.556;39.108;2022-11-20T00:38:32;8.82;;;5.05;;
51124;SDS011;37163;55.556;39.108;2022-11-20T00:41:03;8.80;;;5.60;;
51124;SDS011;37163;55.556;39.108;2022-11-20T00:43:31;11.45;;;6.53;;
51124;SDS011;37163;55.556;39.108;2022-11-20T00:46:16;9.55;;;6.15;;
51124;SDS011;37163;55.556;39.108;2022-11-20T00:48:45;9.85;;;7.13;;
51124;SDS011;37163;55.556;39.108;2022-11-20T00:51:13;10.48;;;6.18;;
51124;SDS011;37163;55.556;39.108;2022-11-20T00:53:41;11.20;;;6.13;;
51124;SDS011;37163;55.556;39.108;2022-11-20T00:56:09;11.48;;;6.50;;
51124;SDS011;37163;55.556;39.108;2022-11-20T00:58:38;9.70;;;5.65;;
51124;SDS011;37163;55.556;39.108;2022-11-20T01:01:09;9.02;;;5.55;;
51124;SDS011;37163;55.556;39.108;2022-11-20T01:03:39;19.17;;;6.10;;
51124;SDS011;37163;55.556;39.108;2022-11-20T01:06:09;11.45;;;6.60;;
51124;SDS011;37163;55.556;39.108;2022-11-20T01:08:38;10.55;;;5.68;;
51124;SDS011;37163;55.556;39.108;2022-11-20T01:11:05;10.73;;;6.18;;
51124;SDS011;37163;55.556;39.108;2022-11-20T01:13:34;10.55;;;5.68;;
51124;SDS011;37163;55.556;39.108;2022-11-20T01:16:13;8.18;;;4.93;;
51124;SDS011;37163;55.556;39.108;2022-11-20T01:18:47;9.07;;;5.72;;
51124;SDS011;37163;55.556;39.108;2022-11-20T01:21:19;9.40;;;5.30;;
51124;SDS011;37163;55.556;39.108;2022-11-20T01:23:47;11.25;;;5.78;;
51124;SDS011;37163;55.556;39.108;2022-11-20T01:26:15;9.32;;;6.22;;
51124;SDS011;37163;55.556;39.108;2022-11-20T01:28:43;11.32;;;6.65;;
51124;SDS011;37163;55.556;39.108;2022-11-20T01:31:14;9.32;;;5.60;;
51124;SDS011;37163;55.556;39.108;2022-11-20T01:33:46;9.15;;;5.85;;
51124;SDS011;37163;55.556;39.108;2022-11-20T01:36:14;11.38;;;6.03;;
51124;SDS011;37163;55.556;39.108;2022-11-20T01:38:41;12.15;;;6.63;;
51124;SDS011;37163;55.556;39.108;2022-11-20T01:41:08;9.50;;;5.97;;
51124;SDS011;37163;55.556;39.108;2022-11-20T01:43:35;9.88;;;5.50;;
51124;SDS011;37163;55.556;39.108;2022-11-20T01:46:03;13.82;;;7.50;;
51124;SDS011;37163;55.556;39.108;2022-11-20T01:48:45;12.02;;;7.18;;
51124;SDS011;37163;55.556;39.108;2022-11-20T01:52:11;10.00;;;6.75;;
51124;SDS011;37163;55.556;39.108;2022-11-20T01:54:18;11.57;;;7.43;;
51124;SDS011;37163;55.556;39.108;2022-11-20T01:56:50;12.00;;;7.22;;
51124;SDS011;37163;55.556;39.108;2022-11-20T01:59:19;12.07;;;6.90;;
51124;SDS011;37163;55.556;39.108;2022-11-20T02:01:46;12.70;;;7.30;;
51124;SDS011;37163;55.556;39.108;2022-11-20T02:04:12;12.15;;;6.78;;
51124;SDS011;37163;55.556;39.108;2022-11-20T02:06:47;10.43;;;6.30;;
51124;SDS011;37163;55.556;39.108;2022-11-20T02:09:16;9.98;;;6.25;;
51124;SDS011;37163;55.556;39.108;2022-11-20T02:11:42;12.57;;;6.78;;
51124;SDS011;37163;55.556;39.108;2022-11-20T02:14:09;11.57;;;7.22;;
51124;SDS011;37163;55.556;39.108;2022-11-20T02:16:45;12.73;;;6.60;;
51124;SDS011;37163;55.556;39.108;2022-11-20T02:19:17;10.95;;;6.10;;
51124;SDS011;37163;55.556;39.108;2022-11-20T02:21:52;11.93;;;6.25;;
51124;SDS011;37163;55.556;39.108;2022-11-20T02:24:30;11.70;;;6.65;;
51124;SDS011;37163;55.556;39.108;2022-11-20T02:27:04;10.50;;;5.90;;
51124;SDS011;37163;55.556;39.108;2022-11-20T02:29:40;12.45;;;6.63;;
51124;SDS011;37163;55.556;39.108;2022-11-20T02:32:45;11.70;;;7.80;;
51124;SDS011;37163;55.556;39.108;2022-11-20T02:35:47;9.57;;;6.75;;
51124;SDS011;37163;55.556;39.108;2022-11-20T02:37:56;11.32;;;6.05;;
51124;SDS011;37163;55.556;39.108;2022-11-20T02:40:24;11.27;;;6.65;;
51124;SDS011;37163;55.556;39.108;2022-11-20T02:42:54;11.63;;;6.40;;
51124;SDS011;37163;55.556;39.108;2022-11-20T02:45:22;11.05;;;6.07;;
51124;SDS011;37163;55.556;39.108;2022-11-20T02:47:48;9.88;;;5.93;;
51124;SDS011;37163;55.556;39.108;2022-11-20T02:50:15;11.15;;;6.40;;
51124;SDS011;37163;55.556;39.108;2022-11-20T02:52:42;9.00;;;5.95;;
51124;SDS011;37163;55.556;39.108;2022-11-20T02:55:08;12.35;;;5.60;;
51124;SDS011;37163;55.556;39.108;2022-11-20T02:57:35;11.50;;;6.82;;
51124;SDS011;37163;55.556;39.108;2022-11-20T03:00:02;10.10;;;6.07;;
51124;SDS011;37163;55.556;39.108;2022-11-20T03:02:30;11.48;;;6.50;;
51124;SDS011;37163;55.556;39.108;2022-11-20T03:04:57;9.77;;;5.88;;
51124;SDS011;37163;55.556;39.108;2022-11-20T03:07:24;9.63;;;5.68;;
51124;SDS011;37163;55.556;39.108;2022-11-20T03:10:09;9.57;;;6.18;;
51124;SDS011;37163;55.556;39.108;2022-11-20T03:12:36;10.27;;;6.20;;
51124;SDS011;37163;55.556;39.108;2022-11-20T03:15:02;12.55;;;6.63;;
51124;SDS011;37163;55.556;39.108;2022-11-20T03:17:29;10.55;;;6.53;;
51124;SDS011;37163;55.556;39.108;2022-11-20T03:19:56;10.35;;;5.63;;
51124;SDS011;37163;55.556;39.108;2022-11-20T03:22:22;9.73;;;5.70;;
51124;SDS011;37163;55.556;39.108;2022-11-20T03:24:49;10.50;;;5.93;;
51124;SDS011;37163;55.556;39.108;2022-11-20T03:27:15;9.88;;;6.25;;
51124;SDS011;37163;55.556;39.108;2022-11-20T03:29:41;11.63;;;6.30;;
51124;SDS011;37163;55.556;39.108;2022-11-20T03:32:08;9.43;;;6.30;;
51124;SDS011;37163;55.556;39.108;2022-11-20T03:34:34;10.00;;;5.70;;
51124;SDS011;37163;55.556;39.108;2022-11-20T03:37:00;11.50;;;6.80;;
51124;SDS011;37163;55.556;39.108;2022-11-20T03:39:27;8.98;;;5.80;;
51124;SDS011;37163;55.556;39.108;2022-11-20T03:41:53;9.23;;;5.63;;
51124;SDS011;37163;55.556;39.108;2022-11-20T03:44:20;9.07;;;5.90;;
51124;SDS011;37163;55.556;39.108;2022-11-20T03:46:47;8.90;;;5.88;;
51124;SDS011;37163;55.556;39.108;2022-11-20T03:49:13;10.18;;;6.60;;
51124;SDS011;37163;55.556;39.108;2022-11-20T03:51:40;9.93;;;5.38;;
51124;SDS011;37163;55.556;39.108;2022-11-20T03:54:06;10.52;;;6.25;;
51124;SDS011;37163;55.556;39.108;2022-11-20T03:56:34;8.95;;;5.75;;
51124;SDS011;37163;55.556;39.108;2022-11-20T03:59:02;9.18;;;5.45;;
51124;SDS011;37163;55.556;39.108;2022-11-20T04:01:30;8.27;;;4.68;;
51124;SDS011;37163;55.556;39.108;2022-11-20T04:03:58;9.23;;;5.40;;
51124;SDS011;37163;55.556;39.108;2022-11-20T04:06:33;11.48;;;6.45;;
51124;SDS011;37163;55.556;39.108;2022-11-20T04:09:01;9.40;;;5.47;;
51124;SDS011;37163;55.556;39.108;2022-11-20T04:11:29;10.23;;;6.38;;
51124;SDS011;37163;55.556;39.108;2022-11-20T04:13:57;11.15;;;5.72;;
51124;SDS011;37163;55.556;39.108;2022-11-20T04:16:25;10.63;;;5.40;;
51124;SDS011;37163;55.556;39.108;2022-11-20T04:18:55;9.20;;;5.72;;
51124;SDS011;37163;55.556;39.108;2022-11-20T04:21:23;9.60;;;6.20;;
51124;SDS011;37163;55.556;39.108;2022-11-20T04:23:50;9.32;;;6.03;;
51124;SDS011;37163;55.556;39.108;2022-11-20T04:26:18;8.65;;;5.15;;
51124;SDS011;37163;55.556;39.108;2022-11-20T04:28:45;9.05;;;5.13;;
51124;SDS011;37163;55.556;39.108;2022-11-20T04:31:13;9.25;;;6.05;;
51124;SDS011;37163;55.556;39.108;2022-11-20T04:33:41;12.07;;;7.28;;
51124;SDS011;37163;55.556;39.108;2022-11-20T04:36:09;9.38;;;5.63;;
51124;SDS011;37163;55.556;39.108;2022-11-20T04:38:38;11.50;;;6.03;;
51124;SDS011;37163;55.556;39.108;2022-11-20T04:41:05;9.05;;;5.63;;
51124;SDS011;37163;55.556;39.108;2022-11-20T04:43:33;9.40;;;5.40;;
51124;SDS011;37163;55.556;39.108;2022-11-20T04:46:00;9.70;;;5.82;;
51124;SDS011;37163;55.556;39.108;2022-11-20T04:48:27;10.40;;;5.97;;
51124;SDS011;37163;55.556;39.108;2022-11-20T04:50:53;9.93;;;5.65;;
51124;SDS011;37163;55.556;39.108;2022-11-20T04:53:20;9.27;;;6.43;;
51124;SDS011;37163;55.556;39.108;2022-11-20T04:55:47;11.30;;;7.22;;
51124;SDS011;37163;55.556;39.108;2022-11-20T04:58:14;13.20;;;7.10;;
51124;SDS011;37163;55.556;39.108;2022-11-20T05:00:40;10.18;;;6.05;;
51124;SDS011;37163;55.556;39.108;2022-11-20T05:03:07;9.70;;;6.40;;
51124;SDS011;37163;55.556;39.108;2022-11-20T05:05:34;9.52;;;5.78;;
51124;SDS011;37163;55.556;39.108;2022-11-20T05:08:00;10.43;;;6.18;;
51124;SDS011;37163;55.556;39.108;2022-11-20T05:10:27;9.20;;;5.95;;
51124;SDS011;37163;55.556;39.108;2022-11-20T05:12:54;10.10;;;5.90;;
51124;SDS011;37163;55.556;39.108;2022-11-20T05:15:20;8.77;;;5.20;;
51124;SDS011;37163;55.556;39.108;2022-11-20T05:17:47;10.18;;;6.03;;
51124;SDS011;37163;55.556;39.108;2022-11-20T05:20:14;11.27;;;6.97;;
51124;SDS011;37163;55.556;39.108;2022-11-20T05:22:41;10.85;;;6.00;;
51124;SDS011;37163;55.556;39.108;2022-11-20T05:25:08;13.35;;;6.68;;
51124;SDS011;37163;55.556;39.108;2022-11-20T05:27:35;10.65;;;5.82;;
51124;SDS011;37163;55.556;39.108;2022-11-20T05:30:02;8.75;;;6.07;;
51124;SDS011;37163;55.556;39.108;2022-11-20T05:32:32;9.93;;;5.68;;
51124;SDS011;37163;55.556;39.108;2022-11-20T05:34:58;9.38;;;6.15;;
51124;SDS011;37163;55.556;39.108;2022-11-20T05:37:25;9.80;;;5.72;;
51124;SDS011;37163;55.556;39.108;2022-11-20T05:39:51;12.50;;;7.75;;
51124;SDS011;37163;55.556;39.108;2022-11-20T05:42:17;9.63;;;5.72;;
51124;SDS011;37163;55.556;39.108;2022-11-20T05:44:56;10.52;;;6.57;;
51124;SDS011;37163;55.556;39.108;2022-11-20T05:47:23;11.43;;;5.82;;
51124;SDS011;37163;55.556;39.108;2022-11-20T05:49:50;12.80;;;6.22;;
51124;SDS011;37163;55.556;39.108;2022-11-20T05:52:16;9.25;;;5.60;;
51124;SDS011;37163;55.556;39.108;2022-11-20T05:54:43;10.65;;;5.72;;
51124;SDS011;37163;55.556;39.108;2022-11-20T05:57:09;11.10;;;6.38;;
51124;SDS011;37163;55.556;39.108;2022-11-20T05:59:35;9.73;;;5.82;;
51124;SDS011;37163;55.556;39.108;2022-11-20T06:02:02;9.65;;;5.57;;
51124;SDS011;37163;55.556;39.108;2022-11-20T06:04:28;9.15;;;5.85;;
51124;SDS011;37163;55.556;39.108;2022-11-20T06:06:54;10.52;;;6.18;;
51124;SDS011;37163;55.556;39.108;2022-11-20T06:09:21;9.90;;;6.10;;
51124;SDS011;37163;55.556;39.108;2022-11-20T06:11:47;8.15;;;4.65;;
51124;SDS011;37163;55.556;39.108;2022-11-20T06:14:13;9.38;;;5.57;;
51124;SDS011;37163;55.556;39.108;2022-11-20T06:16:40;9.68;;;5.75;;
51124;SDS011;37163;55.556;39.108;2022-11-20T06:19:06;9.90;;;5.03;;
51124;SDS011;37163;55.556;39.108;2022-11-20T06:21:32;8.82;;;5.00;;
51124;SDS011;37163;55.556;39.108;2022-11-20T06:23:59;11.23;;;6.43;;
51124;SDS011;37163;55.556;39.108;2022-11-20T06:26:26;10.10;;;6.03;;
51124;SDS011;37163;55.556;39.108;2022-11-20T06:28:54;9.68;;;5.95;;
51124;SDS011;37163;55.556;39.108;2022-11-20T06:31:22;8.93;;;6.10;;
51124;SDS011;37163;55.556;39.108;2022-11-20T06:33:49;7.88;;;5.10;;
51124;SDS011;37163;55.556;39.108;2022-11-20T06:36:17;9.73;;;5.70;;
51124;SDS011;37163;55.556;39.108;2022-11-20T06:38:45;9.38;;;5.78;;
51124;SDS011;37163;55.556;39.108;2022-11-20T06:41:15;8.63;;;4.97;;
51124;SDS011;37163;55.556;39.108;2022-11-20T06:43:43;7.93;;;5.05;;
51124;SDS011;37163;55.556;39.108;2022-11-20T06:46:11;9.55;;;4.82;;
51124;SDS011;37163;55.556;39.108;2022-11-20T06:48:39;8.95;;;5.32;;
51124;SDS011;37163;55.556;39.108;2022-11-20T06:51:06;12.55;;;5.63;;
51124;SDS011;37163;55.556;39.108;2022-11-20T06:53:33;10.55;;;5.47;;
51124;SDS011;37163;55.556;39.108;2022-11-20T06:56:00;7.97;;;4.28;;
51124;SDS011;37163;55.556;39.108;2022-11-20T06:58:27;9.20;;;6.00;;
51124;SDS011;37163;55.556;39.108;2022-11-20T07:00:57;11.00;;;5.78;;
51124;SDS011;37163;55.556;39.108;2022-11-20T07:03:27;12.17;;;6.20;;
51124;SDS011;37163;55.556;39.108;2022-11-20T07:05:54;9.63;;;5.63;;
51124;SDS011;37163;55.556;39.108;2022-11-20T07:08:22;8.43;;;5.53;;
51124;SDS011;37163;55.556;39.108;2022-11-20T07:10:48;10.07;;;6.85;;
51124;SDS011;37163;55.556;39.108;2022-11-20T07:13:15;8.95;;;5.63;;
51124;SDS011;37163;55.556;39.108;2022-11-20T07:15:41;8.68;;;5.22;;
51124;SDS011;37163;55.556;39.108;2022-11-20T07:18:08;10.73;;;5.45;;
51124;SDS011;37163;55.556;39.108;2022-11-20T07:20:34;8.88;;;5.38;;
51124;SDS011;37163;55.556;39.108;2022-11-20T07:23:01;8.00;;;5.32;;
51124;SDS011;37163;55.556;39.108;2022-11-20T07:25:28;10.25;;;5.50;;
51124;SDS011;37163;55.556;39.108;2022-11-20T07:27:57;10.75;;;5.75;;
51124;SDS011;37163;55.556;39.108;2022-11-20T07:30:24;11.10;;;7.95;;
51124;SDS011;37163;55.556;39.108;2022-11-20T07:32:52;11.30;;;8.05;;
51124;SDS011;37163;55.556;39.108;2022-11-20T07:35:19;9.75;;;5.85;;
51124;SDS011;37163;55.556;39.108;2022-11-20T07:37:46;8.52;;;5.05;;
51124;SDS011;37163;55.556;39.108;2022-11-20T07:40:14;8.48;;;5.05;;
51124;SDS011;37163;55.556;39.108;2022-11-20T07:42:51;11.45;;;4.97;;
51124;SDS011;37163;55.556;39.108;2022-11-20T07:45:18;9.88;;;5.57;;
51124;SDS011;37163;55.556;39.108;2022-11-20T07:47:45;8.75;;;4.45;;
51124;SDS011;37163;55.556;39.108;2022-11-20T07:50:12;8.70;;;5.15;;
51124;SDS011;37163;55.556;39.108;2022-11-20T07:52:39;8.52;;;5.80;;
51124;SDS011;37163;55.556;39.108;2022-11-20T07:55:06;7.90;;;4.72;;
51124;SDS011;37163;55.556;39.108;2022-11-20T07:57:33;8.48;;;5.70;;
51124;SDS011;37163;55.556;39.108;2022-11-20T08:00:00;8.68;;;4.82;;
51124;SDS011;37163;55.556;39.108;2022-11-20T08:02:26;8.15;;;4.93;;
51124;SDS011;37163;55.556;39.108;2022-11-20T08:04:53;9.07;;;4.93;;
51124;SDS011;37163;55.556;39.108;2022-11-20T08:07:20;7.97;;;4.78;;
51124;SDS011;37163;55.556;39.108;2022-11-20T08:09:47;7.97;;;4.70;;
51124;SDS011;37163;55.556;39.108;2022-11-20T08:12:17;8.45;;;5.22;;
51124;SDS011;37163;55.556;39.108;2022-11-20T08:15:04;7.95;;;4.70;;
51124;SDS011;37163;55.556;39.108;2022-11-20T08:17:31;9.05;;;5.65;;
51124;SDS011;37163;55.556;39.108;2022-11-20T08:19:57;8.00;;;4.60;;
51124;SDS011;37163;55.556;39.108;2022-11-20T08:22:24;8.88;;;4.40;;
51124;SDS011;37163;55.556;39.108;2022-11-20T08:24:50;10.27;;;5.53;;
51124;SDS011;37163;55.556;39.108;2022-11-20T08:27:17;7.68;;;4.00;;
51124;SDS011;37163;55.556;39.108;2022-11-20T08:29:43;7.20;;;5.10;;
51124;SDS011;37163;55.556;39.108;2022-11-20T08:32:09;9.52;;;5.13;;
51124;SDS011;37163;55.556;39.108;2022-11-20T08:34:36;9.93;;;6.65;;
51124;SDS011;37163;55.556;39.108;2022-11-20T08:37:02;9.73;;;5.72;;
51124;SDS011;37163;55.556;39.108;2022-11-20T08:39:29;10.48;;;5.25;;
51124;SDS011;37163;55.556;39.108;2022-11-20T08:41:55;10.20;;;6.25;;
51124;SDS011;37163;55.556;39.108;2022-11-20T08:44:22;12.77;;;8.80;;
51124;SDS011;37163;55.556;39.108;2022-11-20T08:46:48;12.93;;;9.13;;
51124;SDS011;37163;55.556;39.108;2022-11-20T08:49:15;10.05;;;6.53;;
51124;SDS011;37163;55.556;39.108;2022-11-20T08:51:41;7.57;;;4.85;;
51124;SDS011;37163;55.556;39.108;2022-11-20T08:54:08;7.63;;;5.05;;
51124;SDS011;37163;55.556;39.108;2022-11-20T08:56:35;9.57;;;5.65;;
51124;SDS011;37163;55.556;39.108;2022-11-20T08:59:01;9.20;;;5.85;;
51124;SDS011;37163;55.556;39.108;2022-11-20T09:01:28;9.45;;;5.20;;
51124;SDS011;37163;55.556;39.108;2022-11-20T09:03:55;8.38;;;4.55;;
51124;SDS011;37163;55.556;39.108;2022-11-20T09:06:22;10.25;;;6.60;;
51124;SDS011;37163;55.556;39.108;2022-11-20T09:08:52;11.52;;;6.60;;
51124;SDS011;37163;55.556;39.108;2022-11-20T09:11:20;11.25;;;7.45;;
51124;SDS011;37163;55.556;39.108;2022-11-20T09:13:46;11.68;;;6.53;;
51124;SDS011;37163;55.556;39.108;2022-11-20T09:16:13;10.82;;;6.80;;
51124;SDS011;37163;55.556;39.108;2022-11-20T09:18:39;12.07;;;8.43;;
51124;SDS011;37163;55.556;39.108;2022-11-20T09:21:07;10.32;;;7.32;;
51124;SDS011;37163;55.556;39.108;2022-11-20T09:23:39;11.85;;;6.53;;
51124;SDS011;37163;55.556;39.108;2022-11-20T09:26:13;10.38;;;4.93;;
51124;SDS011;37163;55.556;39.108;2022-11-20T09:28:40;8.13;;;5.03;;
51124;SDS011;37163;55.556;39.108;2022-11-20T09:31:21;7.25;;;4.68;;
51124;SDS011;37163;55.556;39.108;2022-11-20T09:33:49;8.13;;;4.82;;
51124;SDS011;37163;55.556;39.108;2022-11-20T09:36:15;10.27;;;6.13;;
51124;SDS011;37163;55.556;39.108;2022-11-20T09:38:44;8.88;;;5.45;;
51124;SDS011;37163;55.556;39.108;2022-11-20T09:47:01;7.20;;;5.00;;
51124;SDS011;37163;55.556;39.108;2022-11-20T09:52:18;11.40;;;7.95;;
51124;SDS011;37163;55.556;39.108;2022-11-20T09:54:48;14.80;;;9.43;;
51124;SDS011;37163;55.556;39.108;2022-11-20T09:57:20;14.15;;;7.82;;
51124;SDS011;37163;55.556;39.108;2022-11-20T09:59:54;13.88;;;9.35;;
51124;SDS011;37163;55.556;39.108;2022-11-20T10:04:54;15.98;;;10.02;;
51124;SDS011;37163;55.556;39.108;2022-11-20T10:13:28;11.52;;;7.28;;
51124;SDS011;37163;55.556;39.108;2022-11-20T10:16:09;12.38;;;6.68;;
51124;SDS011;37163;55.556;39.108;2022-11-20T10:30:01;11.85;;;7.13;;
51124;SDS011;37163;55.556;39.108;2022-11-20T10:32:32;10.90;;;6.72;;
51124;SDS011;37163;55.556;39.108;2022-11-20T10:37:50;10.27;;;6.45;;
51124;SDS011;37163;55.556;39.108;2022-11-20T10:40:29;9.82;;;6.45;;
51124;SDS011;37163;55.556;39.108;2022-11-20T10:50:54;10.65;;;6.95;;
51124;SDS011;37163;55.556;39.108;2022-11-20T11:01:59;15.97;;;9.27;;
51124;SDS011;37163;55.556;39.108;2022-11-20T11:04:45;12.35;;;7.20;;
51124;SDS011;37163;55.556;39.108;2022-11-20T11:07:17;11.43;;;6.90;;
51124;SDS011;37163;55.556;39.108;2022-11-20T11:10:05;14.85;;;9.15;;
51124;SDS011;37163;55.556;39.108;2022-11-20T11:12:45;12.45;;;7.85;;
51124;SDS011;37163;55.556;39.108;2022-11-20T11:15:24;11.20;;;6.95;;
51124;SDS011;37163;55.556;39.108;2022-11-20T11:17:54;11.15;;;6.95;;
51124;SDS011;37163;55.556;39.108;2022-11-20T11:20:22;11.23;;;6.93;;
51124;SDS011;37163;55.556;39.108;2022-11-20T11:22:51;13.57;;;7.47;;
51124;SDS011;37163;55.556;39.108;2022-11-20T11:25:30;12.00;;;8.43;;
51124;SDS011;37163;55.556;39.108;2022-11-20T11:28:04;11.40;;;7.22;;
51124;SDS011;37163;55.556;39.108;2022-11-20T11:30:44;10.90;;;6.97;;
51124;SDS011;37163;55.556;39.108;2022-11-20T11:35:48;14.48;;;7.50;;
51124;SDS011;37163;55.556;39.108;2022-11-20T11:38:37;11.88;;;5.60;;
51124;SDS011;37163;55.556;39.108;2022-11-20T11:41:06;17.77;;;8.52;;
51124;SDS011;37163;55.556;39.108;2022-11-20T11:43:52;12.57;;;7.60;;
51124;SDS011;37163;55.556;39.108;2022-11-20T11:46:39;11.18;;;6.78;;
51124;SDS011;37163;55.556;39.108;2022-11-20T11:49:17;12.18;;;6.60;;
51124;SDS011;37163;55.556;39.108;2022-11-20T11:57:20;9.18;;;5.75;;
51124;SDS011;37163;55.556;39.108;2022-11-20T12:05:28;11.75;;;6.03;;
51124;SDS011;37163;55.556;39.108;2022-11-20T12:13:14;9.77;;;6.13;;
51124;SDS011;37163;55.556;39.108;2022-11-20T12:15:51;9.18;;;5.65;;
51124;SDS011;37163;55.556;39.108;2022-11-20T12:18:18;12.85;;;6.55;;
51124;SDS011;37163;55.556;39.108;2022-11-20T12:21:33;10.40;;;6.28;;
51124;SDS011;37163;55.556;39.108;2022-11-20T12:23:51;10.60;;;6.30;;
51124;SDS011;37163;55.556;39.108;2022-11-20T12:32:36;12.90;;;7.90;;
51124;SDS011;37163;55.556;39.108;2022-11-20T12:47:24;12.55;;;7.20;;
51124;SDS011;37163;55.556;39.108;2022-11-20T12:49:56;13.73;;;9.40;;
51124;SDS011;37163;55.556;39.108;2022-11-20T12:52:38;17.95;;;12.13;;
51124;SDS011;37163;55.556;39.108;2022-11-20T13:01:30;15.20;;;9.07;;
51124;SDS011;37163;55.556;39.108;2022-11-20T13:04:53;17.75;;;9.00;;
51124;SDS011;37163;55.556;39.108;2022-11-20T13:07:12;19.25;;;9.52;;
51124;SDS011;37163;55.556;39.108;2022-11-20T13:09:44;20.25;;;9.52;;
51124;SDS011;37163;55.556;39.108;2022-11-20T13:12:30;20.45;;;9.20;;
51124;SDS011;37163;55.556;39.108;2022-11-20T13:18:08;19.25;;;9.85;;
51124;SDS011;37163;55.556;39.108;2022-11-20T13:20:40;18.70;;;9.52;;
51124;SDS011;37163;55.556;39.108;2022-11-20T13:23:11;16.95;;;10.70;;
51124;SDS011;37163;55.556;39.108;2022-11-20T13:25:38;17.58;;;9.43;;
51124;SDS011;37163;55.556;39.108;2022-11-20T13:30:35;21.33;;;9.35;;
51124;SDS011;37163;55.556;39.108;2022-11-20T13:33:20;20.75;;;9.52;;
51124;SDS011;37163;55.556;39.108;2022-11-20T13:35:58;17.92;;;9.18;;
51124;SDS011;37163;55.556;39.108;2022-11-20T13:38:26;16.70;;;9.43;;
51124;SDS011;37163;55.556;39.108;2022-11-20T13:40:57;18.98;;;9.63;;
51124;SDS011;37163;55.556;39.108;2022-11-20T13:43:51;20.20;;;9.65;;
51124;SDS011;37163;55.556;39.108;2022-11-20T13:46:18;18.02;;;10.10;;
51124;SDS011;37163;55.556;39.108;2022-11-20T13:48:50;16.23;;;8.77;;
51124;SDS011;37163;55.556;39.108;2022-11-20T13:54:06;16.75;;;10.57;;
51124;SDS011;37163;55.556;39.108;2022-11-20T13:57:01;18.85;;;9.52;;
51124;SDS011;37163;55.556;39.108;2022-11-20T13:59:38;15.07;;;8.82;;
51124;SDS011;37163;55.556;39.108;2022-11-20T14:02:13;14.93;;;8.80;;
51124;SDS011;37163;55.556;39.108;2022-11-20T14:04:42;18.50;;;9.00;;
51124;SDS011;37163;55.556;39.108;2022-11-20T14:07:11;20.23;;;9.63;;
51124;SDS011;37163;55.556;39.108;2022-11-20T14:09:37;14.98;;;8.80;;
51124;SDS011;37163;55.556;39.108;2022-11-20T14:12:12;15.90;;;8.93;;
51124;SDS011;37163;55.556;39.108;2022-11-20T14:14:47;14.57;;;9.25;;
51124;SDS011;37163;55.556;39.108;2022-11-20T14:17:20;13.02;;;7.75;;
51124;SDS011;37163;55.556;39.108;2022-11-20T14:19:49;13.88;;;9.35;;
51124;SDS011;37163;55.556;39.108;2022-11-20T14:22:17;15.88;;;9.38;;
51124;SDS011;37163;55.556;39.108;2022-11-20T14:24:46;17.05;;;9.85;;
51124;SDS011;37163;55.556;39.108;2022-11-20T14:27:29;16.38;;;9.65;;
51124;SDS011;37163;55.556;39.108;2022-11-20T14:30:00;14.57;;;7.78;;
51124;SDS011;37163;55.556;39.108;2022-11-20T14:32:30;15.05;;;9.40;;
51124;SDS011;37163;55.556;39.108;2022-11-20T14:34:59;18.67;;;8.30;;
51124;SDS011;37163;55.556;39.108;2022-11-20T14:37:36;18.45;;;9.65;;
51124;SDS011;37163;55.556;39.108;2022-11-20T14:43:20;16.77;;;9.43;;
51124;SDS011;37163;55.556;39.108;2022-11-20T14:45:58;18.67;;;10.10;;
51124;SDS011;37163;55.556;39.108;2022-11-20T14:48:31;17.58;;;9.82;;
51124;SDS011;37163;55.556;39.108;2022-11-20T14:51:00;16.65;;;10.70;;
51124;SDS011;37163;55.556;39.108;2022-11-20T14:53:27;17.40;;;9.93;;
51124;SDS011;37163;55.556;39.108;2022-11-20T14:55:55;20.52;;;11.30;;
51124;SDS011;37163;55.556;39.108;2022-11-20T14:58:24;16.83;;;9.43;;
51124;SDS011;37163;55.556;39.108;2022-11-20T15:00:55;16.50;;;10.23;;
51124;SDS011;37163;55.556;39.108;2022-11-20T15:03:38;17.42;;;9.60;;
51124;SDS011;37163;55.556;39.108;2022-11-20T15:06:06;18.58;;;10.05;;
51124;SDS011;37163;55.556;39.108;2022-11-20T15:08:36;19.00;;;10.05;;
51124;SDS011;37163;55.556;39.108;2022-11-20T15:11:02;20.30;;;9.68;;
51124;SDS011;37163;55.556;39.108;2022-11-20T15:13:33;17.17;;;9.35;;
51124;SDS011;37163;55.556;39.108;2022-11-20T15:16:02;15.82;;;8.88;;
51124;SDS011;37163;55.556;39.108;2022-11-20T15:18:36;15.50;;;8.88;;
51124;SDS011;37163;55.556;39.108;2022-11-20T15:21:11;17.73;;;9.70;;
51124;SDS011;37163;55.556;39.108;2022-11-20T15:23:38;16.08;;;8.88;;
51124;SDS011;37163;55.556;39.108;2022-11-20T15:26:05;18.40;;;10.07;;
51124;SDS011;37163;55.556;39.108;2022-11-20T15:28:35;18.48;;;8.40;;
51124;SDS011;37163;55.556;39.108;2022-11-20T15:31:05;16.50;;;9.52;;
51124;SDS011;37163;55.556;39.108;2022-11-20T15:33:32;17.92;;;10.07;;
51124;SDS011;37163;55.556;39.108;2022-11-20T15:35:59;18.85;;;11.05;;
51124;SDS011;37163;55.556;39.108;2022-11-20T15:38:26;23.48;;;11.38;;
51124;SDS011;37163;55.556;39.108;2022-11-20T15:40:53;19.25;;;10.68;;
51124;SDS011;37163;55.556;39.108;2022-11-20T15:43:20;22.52;;;12.25;;
51124;SDS011;37163;55.556;39.108;2022-11-20T15:45:51;22.13;;;11.90;;
51124;SDS011;37163;55.556;39.108;2022-11-20T15:48:29;27.25;;;12.07;;
51124;SDS011;37163;55.556;39.108;2022-11-20T15:53:30;22.23;;;11.95;;
51124;SDS011;37163;55.556;39.108;2022-11-20T15:55:57;23.98;;;12.85;;
51124;SDS011;37163;55.556;39.108;2022-11-20T15:58:24;23.83;;;11.63;;
51124;SDS011;37163;55.556;39.108;2022-11-20T16:00:50;24.13;;;11.63;;
51124;SDS011;37163;55.556;39.108;2022-11-20T16:03:17;25.50;;;13.48;;
51124;SDS011;37163;55.556;39.108;2022-11-20T16:05:44;25.27;;;14.23;;
51124;SDS011;37163;55.556;39.108;2022-11-20T16:08:11;25.02;;;12.75;;
51124;SDS011;37163;55.556;39.108;2022-11-20T16:10:37;19.45;;;12.38;;
51124;SDS011;37163;55.556;39.108;2022-11-20T16:13:05;24.20;;;12.52;;
51124;SDS011;37163;55.556;39.108;2022-11-20T16:15:59;25.20;;;13.85;;
51124;SDS011;37163;55.556;39.108;2022-11-20T16:18:30;21.85;;;13.70;;
51124;SDS011;37163;55.556;39.108;2022-11-20T16:20:57;25.45;;;13.98;;
51124;SDS011;37163;55.556;39.108;2022-11-20T16:23:23;22.20;;;14.25;;
51124;SDS011;37163;55.556;39.108;2022-11-20T16:25:51;23.52;;;12.50;;
51124;SDS011;37163;55.556;39.108;2022-11-20T16:28:20;28.33;;;14.38;;